PWSweather.com
Personal Weather Stations
Station Observations
BC052CD
On, Kemptville, ON K0G 1J0

OnKemptville, ON K0G 1J0

Lat: 45.0173179, Lon: -75.6329355

Elevation: 295

Station Type: National Geographic 265NC

http://kerrentweather.ca

High Low Average
Temperature 76.6°F24.8°C 37.9°F3.3°C 59.9°F15.5°C
Dew Point 43.4°F6.3°C 26.0°F-3.3°C 34.3°F1.3°C
Winds 10.3 mph 16.6 kmh Calm Calm 3.0 mph SE4.8 kmh SE
Wind Gusts 21.8 mph35.1 kmh 2.0 mph3.2 kmh 10.0 mph16.1 kmh
Humidity 65% 21% 40%
Pressure 30.22 in1023.4 mb 29.98 in1015.2 mb -
Precipitation 0.00 in0.0 mm - -
Hour Temp Dew Point Humidity Winds Wind Gusts Pressure Precip Precip Rate Daily Precip Total
12:00 AM 47.7°F8.7°C 27.9°F-2.3°C 46% 0.8 mph N1.3 kmh N 3.9 mph6.3 kmh 30.16 in1021.3 mb 0.00 in0.0 mm 0.00 in0.0 mm 0.00 in0.0 mm
12:15 AM 46.9°F8.3°C 27.8°F-2.3°C 47% 0.8 mph N1.3 kmh N 4.8 mph7.7 kmh 30.17 in1021.7 mb 0.00 in0.0 mm 0.00 in0.0 mm 0.00 in0.0 mm
12:30 AM 46.6°F8.1°C 28.5°F-1.9°C 49% Calm Calm 4.8 mph7.7 kmh 30.17 in1021.7 mb 0.00 in0.0 mm 0.00 in0.0 mm 0.00 in0.0 mm
12:45 AM 46.0°F7.8°C 28.5°F-1.9°C 50% 2.0 mph N3.2 kmh N 3.9 mph6.3 kmh 30.17 in1021.7 mb 0.00 in0.0 mm 0.00 in0.0 mm 0.00 in0.0 mm
01:00 AM 45.3°F7.4°C 28.3°F-2.1°C 51% 3.9 mph N6.3 kmh N 10.3 mph16.6 kmh 30.17 in1021.7 mb 0.00 in0.0 mm 0.00 in0.0 mm 0.00 in0.0 mm
01:15 AM 45.3°F7.4°C 28.3°F-2.1°C 51% 0.8 mph N1.3 kmh N 4.8 mph7.7 kmh 30.17 in1021.7 mb 0.00 in0.0 mm 0.00 in0.0 mm 0.00 in0.0 mm
01:30 AM 45.0°F7.2°C 28.9°F-1.7°C 53% 2.8 mph N4.5 kmh N 7.5 mph12.1 kmh 30.17 in1021.7 mb 0.00 in0.0 mm 0.00 in0.0 mm 0.00 in0.0 mm
01:45 AM 45.0°F7.2°C 28.9°F-1.7°C 53% 3.9 mph N6.3 kmh N 9.5 mph15.3 kmh 30.18 in1022.0 mb 0.00 in0.0 mm 0.00 in0.0 mm 0.00 in0.0 mm
02:00 AM 44.8°F7.1°C 27.8°F-2.3°C 51% 2.0 mph N3.2 kmh N 6.7 mph10.8 kmh 30.18 in1022.0 mb 0.00 in0.0 mm 0.00 in0.0 mm 0.00 in0.0 mm
02:15 AM 44.2°F6.8°C 27.3°F-2.6°C 51% 2.0 mph N3.2 kmh N 4.8 mph7.7 kmh 30.18 in1022.0 mb 0.00 in0.0 mm 0.00 in0.0 mm 0.00 in0.0 mm
02:30 AM 43.9°F6.6°C 26.9°F-2.8°C 51% 2.0 mph N3.2 kmh N 5.6 mph9.0 kmh 30.18 in1022.0 mb 0.00 in0.0 mm 0.00 in0.0 mm 0.00 in0.0 mm
02:45 AM 43.7°F6.5°C 27.7°F-2.4°C 53% 0.8 mph N1.3 kmh N 3.9 mph6.3 kmh 30.18 in1022.0 mb 0.00 in0.0 mm 0.00 in0.0 mm 0.00 in0.0 mm
03:00 AM 43.2°F6.2°C 27.2°F-2.7°C 53% Calm Calm 2.8 mph4.5 kmh 30.19 in1022.4 mb 0.00 in0.0 mm 0.00 in0.0 mm 0.00 in0.0 mm
03:15 AM 42.1°F5.6°C 26.7°F-2.9°C 54% Calm Calm 2.8 mph4.5 kmh 30.19 in1022.4 mb 0.00 in0.0 mm 0.00 in0.0 mm 0.00 in0.0 mm
03:30 AM 41.4°F5.2°C 26.9°F-2.8°C 56% Calm Calm 2.8 mph4.5 kmh 30.20 in1022.7 mb 0.00 in0.0 mm 0.00 in0.0 mm 0.00 in0.0 mm
03:45 AM 40.5°F4.7°C 26.0°F-3.3°C 56% Calm Calm 2.0 mph3.2 kmh 30.20 in1022.7 mb 0.00 in0.0 mm 0.00 in0.0 mm 0.00 in0.0 mm
04:00 AM 39.6°F4.2°C 26.0°F-3.3°C 58% Calm Calm 2.0 mph3.2 kmh 30.19 in1022.4 mb 0.00 in0.0 mm 0.00 in0.0 mm 0.00 in0.0 mm
04:15 AM 39.4°F4.1°C 26.7°F-2.9°C 60% Calm Calm 2.0 mph3.2 kmh 30.19 in1022.4 mb 0.00 in0.0 mm 0.00 in0.0 mm 0.00 in0.0 mm
04:30 AM 38.7°F3.7°C 26.8°F-2.9°C 62% Calm Calm 2.0 mph3.2 kmh 30.20 in1022.7 mb 0.00 in0.0 mm 0.00 in0.0 mm 0.00 in0.0 mm
04:45 AM 37.9°F3.3°C 26.9°F-2.8°C 64% 2.0 mph N3.2 kmh N 4.8 mph7.7 kmh 30.20 in1022.7 mb 0.00 in0.0 mm 0.00 in0.0 mm 0.00 in0.0 mm
05:00 AM 38.1°F3.4°C 27.4°F-2.6°C 65% 2.0 mph N3.2 kmh N 4.8 mph7.7 kmh 30.21 in1023.0 mb 0.00 in0.0 mm 0.00 in0.0 mm 0.00 in0.0 mm
05:15 AM 39.0°F3.9°C 28.3°F-2.1°C 65% 2.0 mph N3.2 kmh N 6.7 mph10.8 kmh 30.22 in1023.4 mb 0.00 in0.0 mm 0.00 in0.0 mm 0.00 in0.0 mm
05:30 AM 40.6°F4.8°C 29.8°F-1.2°C 65% 2.8 mph N4.5 kmh N 6.7 mph10.8 kmh 30.22 in1023.4 mb 0.00 in0.0 mm 0.00 in0.0 mm 0.00 in0.0 mm
05:45 AM 42.1°F5.6°C 30.4°F-0.9°C 63% 2.0 mph N3.2 kmh N 7.5 mph12.1 kmh 30.21 in1023.0 mb 0.00 in0.0 mm 0.00 in0.0 mm 0.00 in0.0 mm
06:00 AM 44.2°F6.8°C 30.8°F-0.7°C 59% 4.8 mph NE7.7 kmh NE 16.2 mph26.1 kmh 30.20 in1022.7 mb 0.00 in0.0 mm 0.00 in0.0 mm 0.00 in0.0 mm
06:15 AM 45.7°F7.6°C 30.9°F-0.6°C 56% 4.8 mph NE7.7 kmh NE 10.3 mph16.6 kmh 30.20 in1022.7 mb 0.00 in0.0 mm 0.00 in0.0 mm 0.00 in0.0 mm
06:30 AM 46.9°F8.3°C 31.6°F-0.2°C 55% 5.6 mph NE9.0 kmh NE 9.5 mph15.3 kmh 30.20 in1022.7 mb 0.00 in0.0 mm 0.00 in0.0 mm 0.00 in0.0 mm
06:45 AM 47.7°F8.7°C 31.4°F-0.3°C 53% 3.9 mph NE6.3 kmh NE 13.4 mph21.6 kmh 30.20 in1022.7 mb 0.00 in0.0 mm 0.00 in0.0 mm 0.00 in0.0 mm
07:00 AM 48.6°F9.2°C 31.3°F-0.4°C 51% 5.6 mph N9.0 kmh N 13.4 mph21.6 kmh 30.21 in1023.0 mb 0.00 in0.0 mm 0.00 in0.0 mm 0.00 in0.0 mm
07:15 AM 49.6°F9.8°C 32.3°F0.2°C 51% 2.0 mph N3.2 kmh N 10.3 mph16.6 kmh 30.20 in1022.7 mb 0.00 in0.0 mm 0.00 in0.0 mm 0.00 in0.0 mm
07:30 AM 50.7°F10.4°C 31.8°F-0.1°C 48% 3.9 mph NW6.3 kmh NW 11.5 mph18.5 kmh 30.20 in1022.7 mb 0.00 in0.0 mm 0.00 in0.0 mm 0.00 in0.0 mm
07:45 AM 52.0°F11.1°C 32.9°F0.5°C 48% 2.0 mph W3.2 kmh W 10.3 mph16.6 kmh 30.20 in1022.7 mb 0.00 in0.0 mm 0.00 in0.0 mm 0.00 in0.0 mm
08:00 AM 53.2°F11.8°C 33.5°F0.8°C 47% 5.6 mph W9.0 kmh W 9.5 mph15.3 kmh 30.19 in1022.4 mb 0.00 in0.0 mm 0.00 in0.0 mm 0.00 in0.0 mm
08:15 AM 54.1°F12.3°C 33.8°F1.0°C 46% 2.0 mph W3.2 kmh W 11.5 mph18.5 kmh 30.19 in1022.4 mb 0.00 in0.0 mm 0.00 in0.0 mm 0.00 in0.0 mm
08:30 AM 55.6°F13.1°C 35.1°F1.7°C 46% 4.8 mph W7.7 kmh W 9.5 mph15.3 kmh 30.18 in1022.0 mb 0.00 in0.0 mm 0.00 in0.0 mm 0.00 in0.0 mm
08:45 AM 57.2°F14.0°C 35.5°F1.9°C 44% 2.0 mph W3.2 kmh W 10.3 mph16.6 kmh 30.18 in1022.0 mb 0.00 in0.0 mm 0.00 in0.0 mm 0.00 in0.0 mm
09:00 AM 58.1°F14.5°C 33.9°F1.1°C 40% 3.9 mph W6.3 kmh W 10.3 mph16.6 kmh 30.18 in1022.0 mb 0.00 in0.0 mm 0.00 in0.0 mm 0.00 in0.0 mm
09:15 AM 58.1°F14.5°C 33.9°F1.1°C 40% 0.8 mph W1.3 kmh W 6.7 mph10.8 kmh 30.18 in1022.0 mb 0.00 in0.0 mm 0.00 in0.0 mm 0.00 in0.0 mm
10:15 AM 62.8°F17.1°C 36.1°F2.3°C 37% 2.8 mph W4.5 kmh W 6.7 mph10.8 kmh 30.15 in1021.0 mb 0.00 in0.0 mm 0.00 in0.0 mm 0.00 in0.0 mm
10:30 AM 64.6°F18.1°C 34.1°F1.2°C 32% 3.9 mph W6.3 kmh W 9.5 mph15.3 kmh 30.15 in1021.0 mb 0.00 in0.0 mm 0.00 in0.0 mm 0.00 in0.0 mm
10:45 AM 65.3°F18.5°C 33.9°F1.1°C 31% 2.8 mph W4.5 kmh W 12.3 mph19.8 kmh 30.14 in1020.7 mb 0.00 in0.0 mm 0.00 in0.0 mm 0.00 in0.0 mm
11:00 AM 66.6°F19.2°C 33.3°F0.7°C 29% 3.9 mph W6.3 kmh W 11.5 mph18.5 kmh 30.14 in1020.7 mb 0.00 in0.0 mm 0.00 in0.0 mm 0.00 in0.0 mm
11:15 AM 68.0°F20.0°C 34.6°F1.4°C 29% 6.7 mph SE10.8 kmh SE 13.4 mph21.6 kmh 30.13 in1020.3 mb 0.00 in0.0 mm 0.00 in0.0 mm 0.00 in0.0 mm
11:30 AM 69.3°F20.7°C 37.4°F3.0°C 31% 2.8 mph S4.5 kmh S 13.4 mph21.6 kmh 30.12 in1020.0 mb 0.00 in0.0 mm 0.00 in0.0 mm 0.00 in0.0 mm
11:45 AM 70.7°F21.5°C 37.8°F3.2°C 30% 7.5 mph S12.1 kmh S 15.1 mph24.3 kmh 30.11 in1019.6 mb 0.00 in0.0 mm 0.00 in0.0 mm 0.00 in0.0 mm
12:00 PM 71.2°F21.8°C 39.1°F3.9°C 31% 4.8 mph S7.7 kmh S 16.2 mph26.1 kmh 30.10 in1019.3 mb 0.00 in0.0 mm 0.00 in0.0 mm 0.00 in0.0 mm
12:15 PM 72.3°F22.4°C 40.8°F4.9°C 32% 3.9 mph S6.3 kmh S 15.1 mph24.3 kmh 30.10 in1019.3 mb 0.00 in0.0 mm 0.00 in0.0 mm 0.00 in0.0 mm
12:30 PM 72.7°F22.6°C 41.2°F5.1°C 32% 7.5 mph S12.1 kmh S 14.3 mph23.0 kmh 30.09 in1019.0 mb 0.00 in0.0 mm 0.00 in0.0 mm 0.00 in0.0 mm
12:45 PM 73.9°F23.3°C 42.2°F5.7°C 32% 5.6 mph S9.0 kmh S 11.5 mph18.5 kmh 30.08 in1018.6 mb 0.00 in0.0 mm 0.00 in0.0 mm 0.00 in0.0 mm
01:00 PM 73.9°F23.3°C 41.4°F5.2°C 31% 5.6 mph SSE9.0 kmh SSE 14.3 mph23.0 kmh 30.07 in1018.3 mb 0.00 in0.0 mm 0.00 in0.0 mm 0.00 in0.0 mm
01:15 PM 74.3°F23.5°C 40.9°F4.9°C 30% 6.7 mph S10.8 kmh S 11.5 mph18.5 kmh 30.07 in1018.3 mb 0.00 in0.0 mm 0.00 in0.0 mm 0.00 in0.0 mm
01:30 PM 74.3°F23.5°C 40.0°F4.4°C 29% 6.7 mph S10.8 kmh S 18.2 mph29.3 kmh 30.07 in1018.3 mb 0.00 in0.0 mm 0.00 in0.0 mm 0.00 in0.0 mm
01:45 PM 74.8°F23.8°C 40.5°F4.7°C 29% 3.9 mph SSW6.3 kmh SSW 15.1 mph24.3 kmh 30.06 in1017.9 mb 0.00 in0.0 mm 0.00 in0.0 mm 0.00 in0.0 mm
02:00 PM 74.7°F23.7°C 39.4°F4.1°C 28% 9.5 mph S15.3 kmh S 21.8 mph35.1 kmh 30.05 in1017.6 mb 0.00 in0.0 mm 0.00 in0.0 mm 0.00 in0.0 mm
02:15 PM 75.2°F24.0°C 39.0°F3.9°C 27% 10.3 mph SSW16.6 kmh SSW 19.0 mph30.6 kmh 30.04 in1017.3 mb 0.00 in0.0 mm 0.00 in0.0 mm 0.00 in0.0 mm
02:30 PM 75.2°F24.0°C 38.0°F3.3°C 26% 5.6 mph SW9.0 kmh SW 16.2 mph26.1 kmh 30.03 in1016.9 mb 0.00 in0.0 mm 0.00 in0.0 mm 0.00 in0.0 mm
02:45 PM 75.7°F24.3°C 38.5°F3.6°C 26% 3.9 mph SW6.3 kmh SW 15.1 mph24.3 kmh 30.02 in1016.6 mb 0.00 in0.0 mm 0.00 in0.0 mm 0.00 in0.0 mm
03:00 PM 75.9°F24.4°C 37.6°F3.1°C 25% 3.9 mph SSW6.3 kmh SSW 14.3 mph23.0 kmh 30.02 in1016.6 mb 0.00 in0.0 mm 0.00 in0.0 mm 0.00 in0.0 mm
03:15 PM 76.6°F24.8°C 38.2°F3.4°C 25% 2.8 mph S4.5 kmh S 13.4 mph21.6 kmh 30.01 in1016.3 mb 0.00 in0.0 mm 0.00 in0.0 mm 0.00 in0.0 mm
03:30 PM 76.3°F24.6°C 35.8°F2.1°C 23% 4.8 mph S7.7 kmh S 19.0 mph30.6 kmh 30.01 in1016.3 mb 0.00 in0.0 mm 0.00 in0.0 mm 0.00 in0.0 mm
03:45 PM 76.3°F24.6°C 34.7°F1.5°C 22% 6.7 mph S10.8 kmh S 13.4 mph21.6 kmh 30.01 in1016.3 mb 0.00 in0.0 mm 0.00 in0.0 mm 0.00 in0.0 mm
04:00 PM 76.1°F24.5°C 33.4°F0.8°C 21% 5.6 mph SSE9.0 kmh SSE 15.1 mph24.3 kmh 30.00 in1015.9 mb 0.00 in0.0 mm 0.00 in0.0 mm 0.00 in0.0 mm
04:15 PM 75.9°F24.4°C 33.2°F0.7°C 21% 7.5 mph SW12.1 kmh SW 14.3 mph23.0 kmh 30.00 in1015.9 mb 0.00 in0.0 mm 0.00 in0.0 mm 0.00 in0.0 mm
04:30 PM 75.4°F24.1°C 33.9°F1.1°C 22% 2.8 mph S4.5 kmh S 16.2 mph26.1 kmh 30.01 in1016.3 mb 0.00 in0.0 mm 0.00 in0.0 mm 0.00 in0.0 mm
04:45 PM 75.2°F24.0°C 34.9°F1.6°C 23% 2.0 mph SSW3.2 kmh SSW 12.3 mph19.8 kmh 30.00 in1015.9 mb 0.00 in0.0 mm 0.00 in0.0 mm 0.00 in0.0 mm
05:00 PM 74.8°F23.8°C 32.3°F0.2°C 21% 3.9 mph SSW6.3 kmh SSW 19.0 mph30.6 kmh 30.00 in1015.9 mb 0.00 in0.0 mm 0.00 in0.0 mm 0.00 in0.0 mm
05:15 PM 73.9°F23.3°C 31.6°F-0.2°C 21% 3.9 mph S6.3 kmh S 16.2 mph26.1 kmh 30.00 in1015.9 mb 0.00 in0.0 mm 0.00 in0.0 mm 0.00 in0.0 mm
05:30 PM 72.9°F22.7°C 32.9°F0.5°C 23% 6.7 mph SE10.8 kmh SE 16.2 mph26.1 kmh 30.00 in1015.9 mb 0.00 in0.0 mm 0.00 in0.0 mm 0.00 in0.0 mm
05:45 PM 72.3°F22.4°C 35.5°F1.9°C 26% 4.8 mph S7.7 kmh S 14.3 mph23.0 kmh 30.00 in1015.9 mb 0.00 in0.0 mm 0.00 in0.0 mm 0.00 in0.0 mm
06:00 PM 72.0°F22.2°C 36.2°F2.3°C 27% 3.9 mph S6.3 kmh S 10.3 mph16.6 kmh 29.99 in1015.6 mb 0.00 in0.0 mm 0.00 in0.0 mm 0.00 in0.0 mm
06:15 PM 71.4°F21.9°C 36.6°F2.6°C 28% 5.6 mph SSW9.0 kmh SSW 11.5 mph18.5 kmh 30.00 in1015.9 mb 0.00 in0.0 mm 0.00 in0.0 mm 0.00 in0.0 mm
06:30 PM 70.7°F21.5°C 34.2°F1.2°C 26% 3.9 mph SSW6.3 kmh SSW 13.4 mph21.6 kmh 30.00 in1015.9 mb 0.00 in0.0 mm 0.00 in0.0 mm 0.00 in0.0 mm
06:45 PM 70.2°F21.2°C 34.6°F1.4°C 27% 2.8 mph SW4.5 kmh SW 12.3 mph19.8 kmh 30.00 in1015.9 mb 0.00 in0.0 mm 0.00 in0.0 mm 0.00 in0.0 mm
07:00 PM 69.4°F20.8°C 34.9°F1.6°C 28% 3.9 mph SW6.3 kmh SW 11.5 mph18.5 kmh 30.00 in1015.9 mb 0.00 in0.0 mm 0.00 in0.0 mm 0.00 in0.0 mm
07:15 PM 68.5°F20.3°C 35.9°F2.2°C 30% 2.0 mph SW3.2 kmh SW 9.5 mph15.3 kmh 30.00 in1015.9 mb 0.00 in0.0 mm 0.00 in0.0 mm 0.00 in0.0 mm
07:30 PM 67.1°F19.5°C 36.3°F2.4°C 32% 0.8 mph SW1.3 kmh SW 6.7 mph10.8 kmh 29.99 in1015.6 mb 0.00 in0.0 mm 0.00 in0.0 mm 0.00 in0.0 mm
07:45 PM 65.5°F18.6°C 37.8°F3.2°C 36% 2.0 mph SW3.2 kmh SW 5.6 mph9.0 kmh 29.99 in1015.6 mb 0.00 in0.0 mm 0.00 in0.0 mm 0.00 in0.0 mm
08:00 PM 64.4°F18.0°C 38.3°F3.5°C 38% 2.8 mph SW4.5 kmh SW 9.5 mph15.3 kmh 29.98 in1015.2 mb 0.00 in0.0 mm 0.00 in0.0 mm 0.00 in0.0 mm
08:15 PM 64.0°F17.8°C 37.9°F3.3°C 38% 2.8 mph SW4.5 kmh SW 6.7 mph10.8 kmh 29.98 in1015.2 mb 0.00 in0.0 mm 0.00 in0.0 mm 0.00 in0.0 mm
08:30 PM 64.2°F17.9°C 38.8°F3.8°C 39% 2.8 mph SW4.5 kmh SW 9.5 mph15.3 kmh 29.98 in1015.2 mb 0.00 in0.0 mm 0.00 in0.0 mm 0.00 in0.0 mm
08:45 PM 63.5°F17.5°C 38.8°F3.8°C 40% 2.0 mph SW3.2 kmh SW 10.3 mph16.6 kmh 29.98 in1015.2 mb 0.00 in0.0 mm 0.00 in0.0 mm 0.00 in0.0 mm
09:00 PM 63.3°F17.4°C 39.2°F4.0°C 41% 2.8 mph SW4.5 kmh SW 6.7 mph10.8 kmh 29.98 in1015.2 mb 0.00 in0.0 mm 0.00 in0.0 mm 0.00 in0.0 mm
09:15 PM 62.8°F17.1°C 40.6°F4.8°C 44% 2.8 mph SW4.5 kmh SW 9.5 mph15.3 kmh 29.98 in1015.2 mb 0.00 in0.0 mm 0.00 in0.0 mm 0.00 in0.0 mm
09:30 PM 62.6°F17.0°C 40.4°F4.7°C 44% 2.0 mph SW3.2 kmh SW 8.7 mph14.0 kmh 29.98 in1015.2 mb 0.00 in0.0 mm 0.00 in0.0 mm 0.00 in0.0 mm
09:45 PM 62.6°F17.0°C 39.2°F4.0°C 42% 0.8 mph SW1.3 kmh SW 5.6 mph9.0 kmh 29.98 in1015.2 mb 0.00 in0.0 mm 0.00 in0.0 mm 0.00 in0.0 mm
10:00 PM 63.0°F17.2°C 38.3°F3.5°C 40% 2.8 mph SW4.5 kmh SW 9.5 mph15.3 kmh 29.99 in1015.6 mb 0.00 in0.0 mm 0.00 in0.0 mm 0.00 in0.0 mm
10:15 PM 63.1°F17.3°C 37.8°F3.2°C 39% 2.8 mph SW4.5 kmh SW 7.5 mph12.1 kmh 29.99 in1015.6 mb 0.00 in0.0 mm 0.00 in0.0 mm 0.00 in0.0 mm
10:30 PM 63.5°F17.5°C 38.8°F3.8°C 40% 2.8 mph SW4.5 kmh SW 7.5 mph12.1 kmh 29.99 in1015.6 mb 0.00 in0.0 mm 0.00 in0.0 mm 0.00 in0.0 mm
10:45 PM 63.5°F17.5°C 38.8°F3.8°C 40% 3.9 mph SW6.3 kmh SW 9.5 mph15.3 kmh 29.99 in1015.6 mb 0.00 in0.0 mm 0.00 in0.0 mm 0.00 in0.0 mm
11:00 PM 63.5°F17.5°C 39.4°F4.1°C 41% 3.9 mph SW6.3 kmh SW 9.5 mph15.3 kmh 29.99 in1015.6 mb 0.00 in0.0 mm 0.00 in0.0 mm 0.00 in0.0 mm
11:15 PM 63.1°F17.3°C 40.9°F4.9°C 44% 4.8 mph SW7.7 kmh SW 9.5 mph15.3 kmh 29.99 in1015.6 mb 0.00 in0.0 mm 0.00 in0.0 mm 0.00 in0.0 mm
11:30 PM 63.0°F17.2°C 41.9°F5.5°C 46% 3.9 mph SW6.3 kmh SW 9.5 mph15.3 kmh 30.00 in1015.9 mb 0.00 in0.0 mm 0.00 in0.0 mm 0.00 in0.0 mm
11:45 PM 62.8°F17.1°C 43.4°F6.3°C 49% 4.8 mph SW7.7 kmh SW 10.3 mph16.6 kmh 30.00 in1015.9 mb 0.00 in0.0 mm 0.00 in0.0 mm 0.00 in0.0 mm